SWR4E LSZH-LSGG
Flight info
| Callsign | SWR4E |
|---|---|
| Flight time | N/A |
| Altitude | 18000 |
| Route | VEBIT T50 ROTOS Z669 ULMES |
| Aircraft | A20N/M-SDE2E3FGHIRWXY/LB1 |
Departure
| Time | 2026-04-25 20:43 |
|---|---|
| Airport | Zürich Airport (LSZH) |
Arrival
| Time | N/A |
|---|---|
| Airport | Geneva International Airport (LSGG) |
| Time | Latitude | Longitude | Altitude | Speed | Heading |
|---|---|---|---|---|---|
| 2026-04-25 20:14 | 47.45353 | 8.55701 | 1405 ft | 0 kts | 6° |
| 2026-04-25 20:31 | 47.45340 | 8.55699 | 1389 ft | 3 kts | 6° |
| 2026-04-25 20:31 | 47.45322 | 8.55696 | 1412 ft | 0 kts | 6° |
| 2026-04-25 20:31 | 47.45312 | 8.55695 | 1402 ft | 3 kts | 356° |
| 2026-04-25 20:31 | 47.45296 | 8.55698 | 1401 ft | 2 kts | 343° |
| 2026-04-25 20:32 | 47.45283 | 8.55705 | 1406 ft | 4 kts | 329° |
| 2026-04-25 20:32 | 47.45267 | 8.55725 | 1403 ft | 3 kts | 301° |
| 2026-04-25 20:32 | 47.45260 | 8.55747 | 1401 ft | 0 kts | 277° |
| 2026-04-25 20:35 | 47.45260 | 8.55744 | 1401 ft | 1 kts | 277° |
| 2026-04-25 20:36 | 47.45263 | 8.55714 | 1401 ft | 4 kts | 278° |
| 2026-04-25 20:36 | 47.45269 | 8.55657 | 1401 ft | 7 kts | 278° |
| 2026-04-25 20:36 | 47.45285 | 8.55583 | 1398 ft | 8 kts | 306° |
| 2026-04-25 20:36 | 47.45335 | 8.55530 | 1403 ft | 10 kts | 338° |
| 2026-04-25 20:37 | 47.45402 | 8.55490 | 1396 ft | 8 kts | 336° |
| 2026-04-25 20:37 | 47.45461 | 8.55450 | 1404 ft | 10 kts | 334° |
| 2026-04-25 20:37 | 47.45532 | 8.55403 | 1398 ft | 11 kts | 336° |
| 2026-04-25 20:37 | 47.45609 | 8.55352 | 1400 ft | 13 kts | 343° |
| 2026-04-25 20:38 | 47.45667 | 8.55414 | 1402 ft | 12 kts | 78° |
| 2026-04-25 20:38 | 47.45661 | 8.55531 | 1404 ft | 10 kts | 95° |
| 2026-04-25 20:38 | 47.45653 | 8.55645 | 1396 ft | 12 kts | 95° |
| 2026-04-25 20:38 | 47.45644 | 8.55782 | 1404 ft | 14 kts | 97° |
| 2026-04-25 20:39 | 47.45633 | 8.55930 | 1399 ft | 15 kts | 97° |
| 2026-04-25 20:39 | 47.45622 | 8.56092 | 1396 ft | 17 kts | 95° |
| 2026-04-25 20:39 | 47.45616 | 8.56190 | 1403 ft | 6 kts | 96° |
| 2026-04-25 20:39 | 47.45615 | 8.56198 | 1403 ft | 0 kts | 95° |
| 2026-04-25 20:40 | 47.45622 | 8.56236 | 1401 ft | 3 kts | 65° |
| 2026-04-25 20:40 | 47.45626 | 8.56245 | 1399 ft | 0 kts | 52° |
| 2026-04-25 20:40 | 47.45631 | 8.56251 | 1405 ft | 1 kts | 45° |
| 2026-04-25 20:40 | 47.45663 | 8.56267 | 1402 ft | 7 kts | 8° |
| 2026-04-25 20:41 | 47.45718 | 8.56278 | 1402 ft | 8 kts | 7° |
| 2026-04-25 20:41 | 47.45776 | 8.56288 | 1401 ft | 8 kts | 3° |
| 2026-04-25 20:41 | 47.45836 | 8.56292 | 1405 ft | 9 kts | 3° |
| 2026-04-25 20:41 | 47.45895 | 8.56304 | 1405 ft | 9 kts | 8° |
| 2026-04-25 20:42 | 47.45925 | 8.56310 | 1408 ft | 2 kts | 6° |
| 2026-04-25 20:42 | 47.46040 | 8.56326 | 1405 ft | 27 kts | 7° |
| 2026-04-25 20:42 | 47.46224 | 8.56302 | 1400 ft | 27 kts | 323° |
| 2026-04-25 20:42 | 47.46476 | 8.55965 | 1395 ft | 82 kts | 317° |
| 2026-04-25 20:43 | 47.47041 | 8.55189 | 1397 ft | 137 kts | 316° |
| 2026-04-25 20:43 | 47.47837 | 8.54092 | 1524 ft | 167 kts | 319° |
| 2026-04-25 20:43 | 47.48708 | 8.52931 | 2048 ft | 171 kts | 321° |
| 2026-04-25 20:43 | 47.49622 | 8.51791 | 2752 ft | 165 kts | 323° |
| 2026-04-25 20:44 | 47.50551 | 8.50859 | 3417 ft | 165 kts | 334° |
| 2026-04-25 20:44 | 47.51625 | 8.50031 | 3725 ft | 184 kts | 336° |
| 2026-04-25 20:44 | 47.52691 | 8.48819 | 3968 ft | 207 kts | 307° |
| 2026-04-25 20:44 | 47.53282 | 8.46763 | 4290 ft | 227 kts | 278° |
| 2026-04-25 20:45 | 47.53256 | 8.44426 | 5124 ft | 228 kts | 259° |
| 2026-04-25 20:45 | 47.52842 | 8.42194 | 6116 ft | 223 kts | 250° |
| 2026-04-25 20:45 | 47.52204 | 8.40095 | 7005 ft | 226 kts | 235° |
| 2026-04-25 20:45 | 47.51009 | 8.38585 | 7765 ft | 232 kts | 204° |
| 2026-04-25 20:46 | 47.49419 | 8.37966 | 8478 ft | 244 kts | 192° |
| 2026-04-25 20:46 | 47.47678 | 8.37448 | 8904 ft | 267 kts | 193° |
| 2026-04-25 20:46 | 47.45837 | 8.36646 | 9358 ft | 284 kts | 210° |
| 2026-04-25 20:46 | 47.44347 | 8.34761 | 10172 ft | 284 kts | 234° |
| 2026-04-25 20:47 | 47.43221 | 8.32247 | 10597 ft | 305 kts | 240° |
| 2026-04-25 20:47 | 47.42135 | 8.29406 | 10884 ft | 328 kts | 242° |
| 2026-04-25 20:47 | 47.41015 | 8.26436 | 11429 ft | 339 kts | 242° |
| 2026-04-25 20:47 | 47.39837 | 8.23399 | 12220 ft | 343 kts | 241° |
| 2026-04-25 20:48 | 47.38616 | 8.20334 | 13009 ft | 348 kts | 241° |
| 2026-04-25 20:48 | 47.37366 | 8.17242 | 13791 ft | 353 kts | 240° |
| 2026-04-25 20:48 | 47.36092 | 8.14118 | 14486 ft | 357 kts | 241° |
| 2026-04-25 20:48 | 47.34803 | 8.10967 | 15182 ft | 361 kts | 241° |
| 2026-04-25 20:49 | 47.33493 | 8.07773 | 15849 ft | 366 kts | 242° |
| 2026-04-25 20:49 | 47.32183 | 8.04576 | 16513 ft | 370 kts | 242° |
| 2026-04-25 20:49 | 47.30842 | 8.01307 | 16963 ft | 374 kts | 242° |
| 2026-04-25 20:49 | 47.29492 | 7.98021 | 17110 ft | 376 kts | 242° |
| 2026-04-25 20:50 | 47.28138 | 7.94727 | 17132 ft | 375 kts | 242° |
| 2026-04-25 20:50 | 47.26787 | 7.91442 | 17126 ft | 375 kts | 242° |
| 2026-04-25 20:50 | 47.25435 | 7.88160 | 17126 ft | 375 kts | 242° |
| 2026-04-25 20:50 | 47.24082 | 7.84877 | 17127 ft | 375 kts | 242° |
| 2026-04-25 20:51 | 47.22729 | 7.81599 | 17127 ft | 375 kts | 242° |
| 2026-04-25 20:51 | 47.21372 | 7.78318 | 17127 ft | 375 kts | 242° |
| 2026-04-25 20:51 | 47.20017 | 7.75042 | 17126 ft | 375 kts | 242° |
| 2026-04-25 20:51 | 47.18597 | 7.71825 | 17127 ft | 377 kts | 237° |
| 2026-04-25 20:52 | 47.16965 | 7.68787 | 17125 ft | 378 kts | 234° |
| 2026-04-25 20:52 | 47.16413 | 7.67770 | 17125 ft | 378 kts | 234° |
| 2026-04-25 20:52 | 47.13693 | 7.62732 | 17122 ft | 378 kts | 235° |
| 2026-04-25 20:52 | 47.12059 | 7.59701 | 17119 ft | 379 kts | 234° |
| 2026-04-25 20:53 | 47.10424 | 7.56672 | 17126 ft | 379 kts | 234° |
| 2026-04-25 20:53 | 47.08786 | 7.53643 | 17124 ft | 379 kts | 234° |
| 2026-04-25 20:53 | 47.07146 | 7.50611 | 17123 ft | 379 kts | 234° |
| 2026-04-25 20:53 | 47.05626 | 7.47477 | 17127 ft | 374 kts | 246° |
| 2026-04-25 20:54 | 47.04956 | 7.45167 | 17129 ft | 372 kts | 252° |
| 2026-04-25 20:54 | 47.03903 | 7.41699 | 17128 ft | 373 kts | 240° |
| 2026-04-25 20:54 | 47.02235 | 7.38863 | 17126 ft | 362 kts | 225° |
| 2026-04-25 20:54 | 46.99787 | 7.35759 | 17127 ft | 340 kts | 225° |
| 2026-04-25 20:55 | 46.98109 | 7.33440 | 17126 ft | 325 kts | 229° |
| 2026-04-25 20:55 | 46.97053 | 7.31816 | 17128 ft | 328 kts | 231° |
| 2026-04-25 20:55 | 46.95542 | 7.29294 | 17114 ft | 330 kts | 233° |
| 2026-04-25 20:55 | 46.93619 | 7.25875 | 16853 ft | 327 kts | 234° |
| 2026-04-25 20:56 | 46.92674 | 7.24152 | 16635 ft | 325 kts | 234° |
| 2026-04-25 20:56 | 46.91270 | 7.21578 | 16277 ft | 322 kts | 234° |
| 2026-04-25 20:56 | 46.89879 | 7.19032 | 16143 ft | 320 kts | 234° |
| 2026-04-25 20:56 | 46.88481 | 7.16477 | 16126 ft | 323 kts | 234° |
| 2026-04-25 20:57 | 46.87069 | 7.13905 | 16125 ft | 323 kts | 234° |
| 2026-04-25 20:57 | 46.85662 | 7.11349 | 16125 ft | 323 kts | 234° |
| 2026-04-25 20:57 | 46.84252 | 7.08790 | 16129 ft | 323 kts | 234° |
| 2026-04-25 20:57 | 46.82842 | 7.06234 | 16130 ft | 323 kts | 234° |
| 2026-04-25 20:58 | 46.81432 | 7.03681 | 16132 ft | 323 kts | 234° |
| 2026-04-25 20:58 | 46.80019 | 7.01125 | 16127 ft | 323 kts | 234° |
| 2026-04-25 20:58 | 46.78606 | 6.98570 | 16130 ft | 323 kts | 234° |
| 2026-04-25 20:58 | 46.77193 | 6.96014 | 16128 ft | 323 kts | 234° |
| 2026-04-25 20:59 | 46.75778 | 6.93459 | 16125 ft | 324 kts | 234° |
| 2026-04-25 20:59 | 46.74358 | 6.90896 | 16126 ft | 325 kts | 233° |
| 2026-04-25 20:59 | 46.72941 | 6.88340 | 16129 ft | 324 kts | 233° |
| 2026-04-25 20:59 | 46.71523 | 6.85788 | 16121 ft | 324 kts | 233° |
| 2026-04-25 21:00 | 46.70130 | 6.83282 | 15989 ft | 322 kts | 233° |
| 2026-04-25 21:00 | 46.69182 | 6.81577 | 15800 ft | 320 kts | 233° |
| 2026-04-25 21:00 | 46.65816 | 6.75889 | 14836 ft | 320 kts | 223° |
| 2026-04-25 21:01 | 46.64020 | 6.73993 | 14504 ft | 318 kts | 212° |
| 2026-04-25 21:01 | 46.62076 | 6.72469 | 14126 ft | 316 kts | 210° |
| 2026-04-25 21:01 | 46.60142 | 6.70957 | 13750 ft | 314 kts | 210° |